sensor_id;sensor_type;location;lat;lon;timestamp;P1;durP1;ratioP1;P2;durP2;ratioP2
40595;SDS011;26304;48.794;9.820;2022-09-09T00:05:04;4.88;;;1.35;;
40595;SDS011;26304;48.794;9.820;2022-09-09T00:10:59;3.15;;;1.15;;
40595;SDS011;26304;48.794;9.820;2022-09-09T00:16:49;2.85;;;1.05;;
40595;SDS011;26304;48.794;9.820;2022-09-09T00:22:35;1.10;;;1.00;;
40595;SDS011;26304;48.794;9.820;2022-09-09T00:28:22;1.10;;;1.00;;
40595;SDS011;26304;48.794;9.820;2022-09-09T00:34:12;2.15;;;1.10;;
40595;SDS011;26304;48.794;9.820;2022-09-09T00:39:58;2.47;;;1.00;;
40595;SDS011;26304;48.794;9.820;2022-09-09T00:45:50;1.83;;;1.00;;
40595;SDS011;26304;48.794;9.820;2022-09-09T00:51:44;2.22;;;1.13;;
40595;SDS011;26304;48.794;9.820;2022-09-09T00:57:36;3.38;;;2.63;;
40595;SDS011;26304;48.794;9.820;2022-09-09T01:03:21;1.90;;;1.80;;
40595;SDS011;26304;48.794;9.820;2022-09-09T01:09:11;2.45;;;1.42;;
40595;SDS011;26304;48.794;9.820;2022-09-09T01:15:03;1.25;;;1.15;;
40595;SDS011;26304;48.794;9.820;2022-09-09T01:20:53;1.35;;;1.02;;
40595;SDS011;26304;48.794;9.820;2022-09-09T01:26:44;2.17;;;1.00;;
40595;SDS011;26304;48.794;9.820;2022-09-09T01:32:41;2.28;;;1.30;;
40595;SDS011;26304;48.794;9.820;2022-09-09T01:38:25;1.38;;;1.00;;
40595;SDS011;26304;48.794;9.820;2022-09-09T01:44:08;1.35;;;1.02;;
40595;SDS011;26304;48.794;9.820;2022-09-09T01:49:51;1.70;;;1.10;;
40595;SDS011;26304;48.794;9.820;2022-09-09T01:55:36;3.25;;;1.20;;
40595;SDS011;26304;48.794;9.820;2022-09-09T02:01:24;1.40;;;0.82;;
40595;SDS011;26304;48.794;9.820;2022-09-09T02:07:21;1.50;;;1.35;;
40595;SDS011;26304;48.794;9.820;2022-09-09T02:13:16;2.95;;;1.52;;
40595;SDS011;26304;48.794;9.820;2022-09-09T02:19:04;1.67;;;0.88;;
40595;SDS011;26304;48.794;9.820;2022-09-09T02:24:53;3.03;;;1.23;;
40595;SDS011;26304;48.794;9.820;2022-09-09T02:30:39;1.90;;;0.90;;
40595;SDS011;26304;48.794;9.820;2022-09-09T02:36:26;1.95;;;1.25;;
40595;SDS011;26304;48.794;9.820;2022-09-09T02:42:14;2.88;;;1.40;;
40595;SDS011;26304;48.794;9.820;2022-09-09T02:47:58;2.80;;;1.35;;
40595;SDS011;26304;48.794;9.820;2022-09-09T02:53:49;2.60;;;1.23;;
40595;SDS011;26304;48.794;9.820;2022-09-09T02:59:41;1.42;;;0.80;;
40595;SDS011;26304;48.794;9.820;2022-09-09T03:05:25;1.55;;;1.00;;
40595;SDS011;26304;48.794;9.820;2022-09-09T03:11:10;1.95;;;1.10;;
40595;SDS011;26304;48.794;9.820;2022-09-09T03:16:52;1.33;;;0.90;;
40595;SDS011;26304;48.794;9.820;2022-09-09T03:22:35;1.55;;;0.95;;
40595;SDS011;26304;48.794;9.820;2022-09-09T03:28:19;5.10;;;1.20;;
40595;SDS011;26304;48.794;9.820;2022-09-09T03:34:01;1.60;;;0.95;;
40595;SDS011;26304;48.794;9.820;2022-09-09T03:39:44;1.20;;;0.80;;
40595;SDS011;26304;48.794;9.820;2022-09-09T03:45:28;0.90;;;0.80;;
40595;SDS011;26304;48.794;9.820;2022-09-09T03:51:11;2.58;;;1.10;;
40595;SDS011;26304;48.794;9.820;2022-09-09T03:56:53;1.85;;;0.90;;
40595;SDS011;26304;48.794;9.820;2022-09-09T04:02:37;1.55;;;0.80;;
40595;SDS011;26304;48.794;9.820;2022-09-09T04:08:20;1.17;;;0.75;;
40595;SDS011;26304;48.794;9.820;2022-09-09T04:14:03;1.48;;;0.68;;
40595;SDS011;26304;48.794;9.820;2022-09-09T04:19:48;0.82;;;0.80;;
40595;SDS011;26304;48.794;9.820;2022-09-09T04:25:30;2.72;;;1.00;;
40595;SDS011;26304;48.794;9.820;2022-09-09T04:31:15;1.08;;;0.70;;
40595;SDS011;26304;48.794;9.820;2022-09-09T04:37:02;0.70;;;0.70;;
40595;SDS011;26304;48.794;9.820;2022-09-09T04:42:44;1.30;;;0.95;;
40595;SDS011;26304;48.794;9.820;2022-09-09T04:48:28;1.80;;;1.10;;
40595;SDS011;26304;48.794;9.820;2022-09-09T04:54:13;1.35;;;0.80;;
40595;SDS011;26304;48.794;9.820;2022-09-09T04:59:56;1.67;;;0.88;;
40595;SDS011;26304;48.794;9.820;2022-09-09T05:05:38;1.42;;;0.73;;
40595;SDS011;26304;48.794;9.820;2022-09-09T05:11:22;1.38;;;0.80;;
40595;SDS011;26304;48.794;9.820;2022-09-09T05:17:06;4.05;;;1.52;;
40595;SDS011;26304;48.794;9.820;2022-09-09T05:22:52;2.47;;;1.10;;
40595;SDS011;26304;48.794;9.820;2022-09-09T05:28:36;2.38;;;1.38;;
40595;SDS011;26304;48.794;9.820;2022-09-09T05:34:18;5.05;;;1.40;;
40595;SDS011;26304;48.794;9.820;2022-09-09T05:40:01;5.00;;;1.38;;
40595;SDS011;26304;48.794;9.820;2022-09-09T05:45:45;2.83;;;1.23;;
40595;SDS011;26304;48.794;9.820;2022-09-09T05:51:28;6.78;;;1.50;;
40595;SDS011;26304;48.794;9.820;2022-09-09T05:57:11;2.60;;;1.25;;
40595;SDS011;26304;48.794;9.820;2022-09-09T06:02:55;1.48;;;1.10;;
40595;SDS011;26304;48.794;9.820;2022-09-09T06:08:39;1.38;;;0.90;;
40595;SDS011;26304;48.794;9.820;2022-09-09T06:14:25;1.30;;;1.00;;
40595;SDS011;26304;48.794;9.820;2022-09-09T06:20:09;1.67;;;1.05;;
40595;SDS011;26304;48.794;9.820;2022-09-09T06:26:00;2.33;;;0.85;;
40595;SDS011;26304;48.794;9.820;2022-09-09T06:31:43;1.13;;;0.80;;
40595;SDS011;26304;48.794;9.820;2022-09-09T06:37:27;1.10;;;0.98;;
40595;SDS011;26304;48.794;9.820;2022-09-09T06:43:09;2.60;;;0.98;;
40595;SDS011;26304;48.794;9.820;2022-09-09T06:48:52;1.75;;;1.13;;
40595;SDS011;26304;48.794;9.820;2022-09-09T06:54:37;1.77;;;0.80;;
40595;SDS011;26304;48.794;9.820;2022-09-09T07:00:19;3.08;;;0.80;;
40595;SDS011;26304;48.794;9.820;2022-09-09T07:06:02;1.63;;;1.00;;
40595;SDS011;26304;48.794;9.820;2022-09-09T07:11:46;2.15;;;1.00;;
40595;SDS011;26304;48.794;9.820;2022-09-09T07:17:30;0.73;;;0.60;;
40595;SDS011;26304;48.794;9.820;2022-09-09T07:23:12;1.50;;;0.85;;
40595;SDS011;26304;48.794;9.820;2022-09-09T07:28:56;1.17;;;0.80;;
40595;SDS011;26304;48.794;9.820;2022-09-09T07:34:38;1.85;;;0.80;;
40595;SDS011;26304;48.794;9.820;2022-09-09T07:40:21;0.75;;;0.75;;
40595;SDS011;26304;48.794;9.820;2022-09-09T07:46:05;1.35;;;0.93;;
40595;SDS011;26304;48.794;9.820;2022-09-09T07:51:48;1.00;;;0.60;;
40595;SDS011;26304;48.794;9.820;2022-09-09T07:57:30;1.70;;;0.80;;
40595;SDS011;26304;48.794;9.820;2022-09-09T08:03:14;1.63;;;1.00;;
40595;SDS011;26304;48.794;9.820;2022-09-09T08:08:56;1.42;;;0.80;;
40595;SDS011;26304;48.794;9.820;2022-09-09T08:14:38;0.82;;;0.75;;
40595;SDS011;26304;48.794;9.820;2022-09-09T08:20:22;0.73;;;0.55;;
40595;SDS011;26304;48.794;9.820;2022-09-09T08:26:06;0.85;;;0.85;;
40595;SDS011;26304;48.794;9.820;2022-09-09T08:31:50;1.00;;;0.70;;
40595;SDS011;26304;48.794;9.820;2022-09-09T08:37:36;0.98;;;0.70;;
40595;SDS011;26304;48.794;9.820;2022-09-09T08:43:18;1.52;;;0.80;;
40595;SDS011;26304;48.794;9.820;2022-09-09T08:49:05;1.33;;;0.80;;
40595;SDS011;26304;48.794;9.820;2022-09-09T08:54:58;1.40;;;0.90;;
40595;SDS011;26304;48.794;9.820;2022-09-09T09:00:54;2.45;;;0.98;;
40595;SDS011;26304;48.794;9.820;2022-09-09T09:06:47;2.25;;;0.88;;
40595;SDS011;26304;48.794;9.820;2022-09-09T09:12:39;1.98;;;0.90;;
40595;SDS011;26304;48.794;9.820;2022-09-09T09:18:24;2.17;;;1.02;;
40595;SDS011;26304;48.794;9.820;2022-09-09T09:24:11;1.98;;;0.93;;
40595;SDS011;26304;48.794;9.820;2022-09-09T09:30:02;1.05;;;0.85;;
40595;SDS011;26304;48.794;9.820;2022-09-09T09:35:55;2.53;;;0.95;;
40595;SDS011;26304;48.794;9.820;2022-09-09T09:41:41;2.40;;;1.00;;
40595;SDS011;26304;48.794;9.820;2022-09-09T09:47:25;1.58;;;0.90;;
40595;SDS011;26304;48.794;9.820;2022-09-09T09:53:17;3.17;;;1.00;;
40595;SDS011;26304;48.794;9.820;2022-09-09T09:59:03;2.50;;;0.85;;
40595;SDS011;26304;48.794;9.820;2022-09-09T10:04:46;3.38;;;1.30;;
40595;SDS011;26304;48.794;9.820;2022-09-09T10:10:37;1.75;;;1.20;;
40595;SDS011;26304;48.794;9.820;2022-09-09T10:16:32;2.33;;;1.27;;
40595;SDS011;26304;48.794;9.820;2022-09-09T10:22:27;3.30;;;1.17;;
40595;SDS011;26304;48.794;9.820;2022-09-09T10:28:18;2.03;;;0.90;;
40595;SDS011;26304;48.794;9.820;2022-09-09T10:34:17;2.65;;;1.55;;
40595;SDS011;26304;48.794;9.820;2022-09-09T10:40:25;1.65;;;0.95;;
40595;SDS011;26304;48.794;9.820;2022-09-09T10:46:14;2.10;;;1.42;;
40595;SDS011;26304;48.794;9.820;2022-09-09T10:52:05;1.98;;;1.30;;
40595;SDS011;26304;48.794;9.820;2022-09-09T10:57:58;1.30;;;0.70;;
40595;SDS011;26304;48.794;9.820;2022-09-09T11:03:45;2.58;;;1.10;;
40595;SDS011;26304;48.794;9.820;2022-09-09T11:09:35;2.17;;;1.10;;
40595;SDS011;26304;48.794;9.820;2022-09-09T11:15:26;2.10;;;1.45;;
40595;SDS011;26304;48.794;9.820;2022-09-09T11:21:16;1.50;;;0.93;;
40595;SDS011;26304;48.794;9.820;2022-09-09T11:27:05;2.85;;;1.52;;
40595;SDS011;26304;48.794;9.820;2022-09-09T11:33:07;1.90;;;1.00;;
40595;SDS011;26304;48.794;9.820;2022-09-09T11:39:02;2.38;;;0.80;;
40595;SDS011;26304;48.794;9.820;2022-09-09T11:44:56;1.90;;;0.80;;
40595;SDS011;26304;48.794;9.820;2022-09-09T11:50:39;1.10;;;0.57;;
40595;SDS011;26304;48.794;9.820;2022-09-09T11:56:26;2.80;;;0.60;;
40595;SDS011;26304;48.794;9.820;2022-09-09T12:02:12;1.25;;;0.70;;
40595;SDS011;26304;48.794;9.820;2022-09-09T12:08:01;2.15;;;0.77;;
40595;SDS011;26304;48.794;9.820;2022-09-09T12:13:51;1.63;;;0.70;;
40595;SDS011;26304;48.794;9.820;2022-09-09T12:19:35;3.00;;;0.98;;
40595;SDS011;26304;48.794;9.820;2022-09-09T12:25:20;1.92;;;0.95;;
40595;SDS011;26304;48.794;9.820;2022-09-09T12:31:12;3.03;;;0.93;;
40595;SDS011;26304;48.794;9.820;2022-09-09T12:37:02;3.47;;;0.80;;
40595;SDS011;26304;48.794;9.820;2022-09-09T12:42:49;1.85;;;0.98;;
40595;SDS011;26304;48.794;9.820;2022-09-09T12:48:33;1.35;;;0.93;;
40595;SDS011;26304;48.794;9.820;2022-09-09T12:54:18;2.35;;;0.85;;
40595;SDS011;26304;48.794;9.820;2022-09-09T13:00:11;2.00;;;0.70;;
40595;SDS011;26304;48.794;9.820;2022-09-09T13:05:58;3.30;;;1.10;;
40595;SDS011;26304;48.794;9.820;2022-09-09T13:11:42;1.38;;;0.70;;
40595;SDS011;26304;48.794;9.820;2022-09-09T13:17:32;3.38;;;0.60;;
40595;SDS011;26304;48.794;9.820;2022-09-09T13:23:15;1.58;;;0.70;;
40595;SDS011;26304;48.794;9.820;2022-09-09T13:29:15;1.67;;;0.50;;
40595;SDS011;26304;48.794;9.820;2022-09-09T13:35:01;0.90;;;0.85;;
40595;SDS011;26304;48.794;9.820;2022-09-09T13:40:51;1.85;;;0.60;;
40595;SDS011;26304;48.794;9.820;2022-09-09T13:46:36;1.73;;;0.70;;
40595;SDS011;26304;48.794;9.820;2022-09-09T13:52:22;1.35;;;0.70;;
40595;SDS011;26304;48.794;9.820;2022-09-09T13:58:14;1.58;;;0.65;;
40595;SDS011;26304;48.794;9.820;2022-09-09T14:03:59;0.98;;;0.60;;
40595;SDS011;26304;48.794;9.820;2022-09-09T14:09:42;1.92;;;0.80;;
40595;SDS011;26304;48.794;9.820;2022-09-09T14:15:25;1.38;;;0.60;;
40595;SDS011;26304;48.794;9.820;2022-09-09T14:21:07;0.90;;;0.70;;
40595;SDS011;26304;48.794;9.820;2022-09-09T14:26:51;1.08;;;0.50;;
40595;SDS011;26304;48.794;9.820;2022-09-09T14:32:34;1.25;;;0.45;;
40595;SDS011;26304;48.794;9.820;2022-09-09T14:38:19;1.08;;;0.50;;
40595;SDS011;26304;48.794;9.820;2022-09-09T14:44:02;1.13;;;0.65;;
40595;SDS011;26304;48.794;9.820;2022-09-09T14:49:46;0.60;;;0.50;;
40595;SDS011;26304;48.794;9.820;2022-09-09T14:55:30;2.10;;;0.52;;
40595;SDS011;26304;48.794;9.820;2022-09-09T15:01:15;1.02;;;0.50;;
40595;SDS011;26304;48.794;9.820;2022-09-09T15:06:58;0.43;;;0.32;;
40595;SDS011;26304;48.794;9.820;2022-09-09T15:12:41;1.38;;;0.50;;
40595;SDS011;26304;48.794;9.820;2022-09-09T15:18:24;0.80;;;0.50;;
40595;SDS011;26304;48.794;9.820;2022-09-09T15:24:07;2.13;;;0.77;;
40595;SDS011;26304;48.794;9.820;2022-09-09T15:29:50;1.17;;;0.50;;
40595;SDS011;26304;48.794;9.820;2022-09-09T15:35:34;1.20;;;0.65;;
40595;SDS011;26304;48.794;9.820;2022-09-09T15:41:17;0.95;;;0.40;;
40595;SDS011;26304;48.794;9.820;2022-09-09T15:47:00;1.52;;;0.70;;
40595;SDS011;26304;48.794;9.820;2022-09-09T15:52:44;2.60;;;0.80;;
40595;SDS011;26304;48.794;9.820;2022-09-09T15:58:29;1.27;;;0.45;;
40595;SDS011;26304;48.794;9.820;2022-09-09T16:04:13;1.65;;;0.47;;
40595;SDS011;26304;48.794;9.820;2022-09-09T16:09:57;0.73;;;0.50;;
40595;SDS011;26304;48.794;9.820;2022-09-09T16:15:40;0.50;;;0.38;;
40595;SDS011;26304;48.794;9.820;2022-09-09T16:21:24;0.82;;;0.30;;
40595;SDS011;26304;48.794;9.820;2022-09-09T16:27:11;1.17;;;0.43;;
40595;SDS011;26304;48.794;9.820;2022-09-09T16:32:54;1.77;;;0.52;;
40595;SDS011;26304;48.794;9.820;2022-09-09T16:38:37;1.30;;;0.50;;
40595;SDS011;26304;48.794;9.820;2022-09-09T16:44:21;0.60;;;0.40;;
40595;SDS011;26304;48.794;9.820;2022-09-09T16:50:04;0.55;;;0.40;;
40595;SDS011;26304;48.794;9.820;2022-09-09T16:55:47;1.33;;;0.50;;
40595;SDS011;26304;48.794;9.820;2022-09-09T17:01:31;1.98;;;0.47;;
40595;SDS011;26304;48.794;9.820;2022-09-09T17:07:18;1.10;;;0.50;;
40595;SDS011;26304;48.794;9.820;2022-09-09T17:13:01;2.67;;;0.77;;
40595;SDS011;26304;48.794;9.820;2022-09-09T17:18:45;1.27;;;0.63;;
40595;SDS011;26304;48.794;9.820;2022-09-09T17:24:27;0.57;;;0.50;;
40595;SDS011;26304;48.794;9.820;2022-09-09T17:30:10;1.83;;;0.50;;
40595;SDS011;26304;48.794;9.820;2022-09-09T17:35:55;1.83;;;0.47;;
40595;SDS011;26304;48.794;9.820;2022-09-09T17:41:38;2.45;;;0.70;;
40595;SDS011;26304;48.794;9.820;2022-09-09T17:47:21;0.75;;;0.43;;
40595;SDS011;26304;48.794;9.820;2022-09-09T17:53:05;1.85;;;0.60;;
40595;SDS011;26304;48.794;9.820;2022-09-09T17:58:48;0.57;;;0.32;;
40595;SDS011;26304;48.794;9.820;2022-09-09T18:04:31;0.45;;;0.35;;
40595;SDS011;26304;48.794;9.820;2022-09-09T18:10:15;0.63;;;0.40;;
40595;SDS011;26304;48.794;9.820;2022-09-09T18:15:57;0.88;;;0.40;;
40595;SDS011;26304;48.794;9.820;2022-09-09T18:21:41;0.30;;;0.30;;
40595;SDS011;26304;48.794;9.820;2022-09-09T18:27:25;0.90;;;0.47;;
40595;SDS011;26304;48.794;9.820;2022-09-09T18:33:08;0.28;;;0.20;;
40595;SDS011;26304;48.794;9.820;2022-09-09T18:38:51;0.52;;;0.20;;
40595;SDS011;26304;48.794;9.820;2022-09-09T18:44:37;2.30;;;0.30;;
40595;SDS011;26304;48.794;9.820;2022-09-09T18:50:20;0.80;;;0.20;;
40595;SDS011;26304;48.794;9.820;2022-09-09T18:56:03;0.70;;;0.20;;
40595;SDS011;26304;48.794;9.820;2022-09-09T19:01:49;0.43;;;0.32;;
40595;SDS011;26304;48.794;9.820;2022-09-09T19:07:33;0.40;;;0.40;;
40595;SDS011;26304;48.794;9.820;2022-09-09T19:13:15;0.35;;;0.28;;
40595;SDS011;26304;48.794;9.820;2022-09-09T19:18:59;2.05;;;0.57;;
40595;SDS011;26304;48.794;9.820;2022-09-09T19:24:44;2.03;;;0.43;;
40595;SDS011;26304;48.794;9.820;2022-09-09T19:30:26;0.75;;;0.50;;
40595;SDS011;26304;48.794;9.820;2022-09-09T19:36:10;0.75;;;0.60;;
40595;SDS011;26304;48.794;9.820;2022-09-09T19:41:55;3.35;;;1.45;;
40595;SDS011;26304;48.794;9.820;2022-09-09T19:47:37;2.47;;;1.60;;
40595;SDS011;26304;48.794;9.820;2022-09-09T19:53:21;1.13;;;1.02;;
40595;SDS011;26304;48.794;9.820;2022-09-09T19:59:03;1.35;;;1.00;;
40595;SDS011;26304;48.794;9.820;2022-09-09T20:04:48;1.13;;;0.65;;
40595;SDS011;26304;48.794;9.820;2022-09-09T20:10:31;1.77;;;0.77;;
40595;SDS011;26304;48.794;9.820;2022-09-09T20:16:14;2.13;;;0.90;;
40595;SDS011;26304;48.794;9.820;2022-09-09T20:21:58;0.88;;;0.70;;
40595;SDS011;26304;48.794;9.820;2022-09-09T20:27:42;0.80;;;0.80;;
40595;SDS011;26304;48.794;9.820;2022-09-09T20:33:24;0.90;;;0.77;;
40595;SDS011;26304;48.794;9.820;2022-09-09T20:39:08;1.63;;;0.90;;
40595;SDS011;26304;48.794;9.820;2022-09-09T20:44:53;0.77;;;0.70;;
40595;SDS011;26304;48.794;9.820;2022-09-09T20:50:35;0.70;;;0.70;;
40595;SDS011;26304;48.794;9.820;2022-09-09T20:56:19;0.88;;;0.70;;
40595;SDS011;26304;48.794;9.820;2022-09-09T21:02:03;1.15;;;0.50;;
40595;SDS011;26304;48.794;9.820;2022-09-09T21:07:46;0.43;;;0.43;;
40595;SDS011;26304;48.794;9.820;2022-09-09T21:13:28;0.50;;;0.50;;
40595;SDS011;26304;48.794;9.820;2022-09-09T21:19:13;0.73;;;0.60;;
40595;SDS011;26304;48.794;9.820;2022-09-09T21:24:55;0.88;;;0.70;;
40595;SDS011;26304;48.794;9.820;2022-09-09T21:30:38;0.50;;;0.50;;
40595;SDS011;26304;48.794;9.820;2022-09-09T21:36:23;0.60;;;0.45;;
40595;SDS011;26304;48.794;9.820;2022-09-09T21:42:08;0.60;;;0.60;;
40595;SDS011;26304;48.794;9.820;2022-09-09T21:47:50;1.98;;;0.90;;
40595;SDS011;26304;48.794;9.820;2022-09-09T21:53:34;1.02;;;0.80;;
40595;SDS011;26304;48.794;9.820;2022-09-09T21:59:17;0.80;;;0.50;;
40595;SDS011;26304;48.794;9.820;2022-09-09T22:05:00;1.13;;;0.57;;
40595;SDS011;26304;48.794;9.820;2022-09-09T22:10:44;1.20;;;0.80;;
40595;SDS011;26304;48.794;9.820;2022-09-09T22:16:27;1.33;;;0.88;;
40595;SDS011;26304;48.794;9.820;2022-09-09T22:22:11;1.35;;;0.52;;
40595;SDS011;26304;48.794;9.820;2022-09-09T22:27:55;1.65;;;0.77;;
40595;SDS011;26304;48.794;9.820;2022-09-09T22:33:37;0.85;;;0.70;;
40595;SDS011;26304;48.794;9.820;2022-09-09T22:39:19;0.82;;;0.47;;
40595;SDS011;26304;48.794;9.820;2022-09-09T22:45:04;1.80;;;0.70;;
40595;SDS011;26304;48.794;9.820;2022-09-09T22:50:47;1.13;;;0.60;;
40595;SDS011;26304;48.794;9.820;2022-09-09T22:56:29;1.52;;;0.70;;
40595;SDS011;26304;48.794;9.820;2022-09-09T23:02:13;1.80;;;0.68;;
40595;SDS011;26304;48.794;9.820;2022-09-09T23:07:55;2.83;;;0.70;;
40595;SDS011;26304;48.794;9.820;2022-09-09T23:13:39;1.20;;;0.55;;
40595;SDS011;26304;48.794;9.820;2022-09-09T23:19:24;1.00;;;0.70;;
40595;SDS011;26304;48.794;9.820;2022-09-09T23:25:08;1.60;;;0.63;;
40595;SDS011;26304;48.794;9.820;2022-09-09T23:30:51;0.80;;;0.70;;
40595;SDS011;26304;48.794;9.820;2022-09-09T23:36:34;1.70;;;0.98;;
40595;SDS011;26304;48.794;9.820;2022-09-09T23:42:17;1.45;;;0.80;;
40595;SDS011;26304;48.794;9.820;2022-09-09T23:48:00;1.10;;;0.52;;
40595;SDS011;26304;48.794;9.820;2022-09-09T23:53:44;0.88;;;0.57;;
40595;SDS011;26304;48.794;9.820;2022-09-09T23:59:31;1.35;;;0.70;;
